createdAt,value
2018-07-31T00:04:10.373Z,97011.79
2018-07-31T00:09:07.691Z,97011.63
2018-07-31T00:14:02.922Z,96998.63
2018-07-31T00:18:57.668Z,97008.92
2018-07-31T00:23:52.402Z,97010.05
2018-07-31T00:28:47.570Z,97014.73
2018-07-31T00:33:42.336Z,97020.27
2018-07-31T00:38:36.981Z,97027.20
2018-07-31T00:43:32.102Z,97021.73
2018-07-31T00:48:26.781Z,97015.15
2018-07-31T00:53:21.451Z,97016.91
2018-07-31T00:58:16.234Z,97020.52
2018-07-31T01:03:10.949Z,97019.42
2018-07-31T01:08:05.753Z,97022.44
2018-07-31T01:13:00.362Z,97014.94
2018-07-31T01:17:54.973Z,97015.86
2018-07-31T01:22:49.736Z,97012.56
2018-07-31T01:27:44.467Z,97007.50
2018-07-31T01:32:39.227Z,97011.27
2018-07-31T01:37:33.984Z,97011.50
2018-07-31T01:42:28.824Z,97013.68
2018-07-31T01:47:23.438Z,97008.12
2018-07-31T01:52:18.125Z,97002.96
2018-07-31T01:57:13.202Z,97003.94
2018-07-31T02:02:08.435Z,97014.55
2018-07-31T02:07:03.339Z,97014.23
2018-07-31T02:11:57.977Z,97008.48
2018-07-31T02:16:52.662Z,97012.09
2018-07-31T02:21:47.983Z,97008.67
2018-07-31T02:26:42.293Z,97002.64
2018-07-31T02:31:36.859Z,97006.27
2018-07-31T02:36:31.600Z,97013.21
2018-07-31T02:41:26.794Z,97010.67
2018-07-31T02:46:21.448Z,97007.66
2018-07-31T02:51:16.422Z,97007.43
2018-07-31T02:56:11.044Z,97011.70
2018-07-31T03:01:05.836Z,97021.36
2018-07-31T03:06:00.449Z,97014.53
2018-07-31T03:10:55.066Z,97019.34
2018-07-31T03:15:49.683Z,97014.68
2018-07-31T03:20:44.312Z,97027.06
2018-07-31T03:25:38.942Z,97024.53
2018-07-31T03:30:33.527Z,97021.43
2018-07-31T03:35:28.128Z,97020.92
2018-07-31T03:40:22.786Z,97026.94
2018-07-31T03:45:17.423Z,97027.08
2018-07-31T03:50:12.139Z,97014.30
2018-07-31T03:55:06.874Z,97017.21
2018-07-31T04:00:01.708Z,97028.91
2018-07-31T04:04:56.309Z,97027.95
2018-07-31T04:09:51.752Z,97030.27
2018-07-31T04:14:46.519Z,97023.57
2018-07-31T04:19:40.908Z,97029.36
2018-07-31T04:24:35.781Z,97022.88
2018-07-31T04:29:30.380Z,97034.28
2018-07-31T04:34:25.315Z,97027.46
2018-07-31T04:39:19.949Z,97036.28
2018-07-31T04:44:15.043Z,97027.16
2018-07-31T04:49:09.841Z,97034.73
2018-07-31T04:54:04.488Z,97040.17
2018-07-31T04:58:59.191Z,97035.41
2018-07-31T05:03:53.863Z,97042.81
2018-07-31T05:08:48.814Z,97041.41
2018-07-31T05:13:43.466Z,97041.81
2018-07-31T05:18:38.115Z,97041.79
2018-07-31T05:23:32.729Z,97050.44
2018-07-31T05:28:27.347Z,97055.86
2018-07-31T05:33:21.958Z,97049.68
2018-07-31T05:38:16.819Z,97057.75
2018-07-31T05:43:11.514Z,97068.78
2018-07-31T05:48:06.622Z,97071.67
2018-07-31T05:53:01.241Z,97070.52
2018-07-31T05:57:56.045Z,97078.02
2018-07-31T06:02:50.713Z,97076.53
2018-07-31T06:07:45.495Z,97086.98
2018-07-31T06:12:40.256Z,97077.59
2018-07-31T06:17:35.613Z,97083.50
2018-07-31T06:22:30.250Z,97086.89
2018-07-31T06:27:24.914Z,97096.00
2018-07-31T06:32:19.563Z,97097.33
2018-07-31T06:37:14.203Z,97104.86
2018-07-31T06:42:09.727Z,97099.70
2018-07-31T06:47:05.249Z,97108.20
2018-07-31T06:51:59.923Z,97108.05
2018-07-31T06:56:54.604Z,97101.02
2018-07-31T07:01:50.065Z,97110.25
2018-07-31T07:06:44.826Z,97110.40
2018-07-31T07:11:39.602Z,97114.07
2018-07-31T07:16:34.420Z,97115.78
2018-07-31T07:21:29.099Z,97102.90
2018-07-31T07:26:24.460Z,97109.97
2018-07-31T07:31:19.165Z,97106.72
2018-07-31T07:36:13.792Z,97108.27
2018-07-31T07:41:08.870Z,97105.69
2018-07-31T07:46:03.529Z,97101.66
2018-07-31T07:50:58.410Z,97102.74
2018-07-31T07:56:02.215Z,97107.33
2018-07-31T08:00:56.867Z,97113.92
2018-07-31T08:05:51.496Z,97113.70
2018-07-31T08:10:46.254Z,97118.71
2018-07-31T08:15:41.067Z,97116.17
2018-07-31T08:20:35.808Z,97119.28
2018-07-31T08:25:30.551Z,97120.63
2018-07-31T08:30:25.312Z,97115.02
2018-07-31T08:35:19.961Z,97116.95
2018-07-31T08:40:14.615Z,97119.72
2018-07-31T08:45:09.419Z,97119.55
2018-07-31T08:50:04.143Z,97115.58
2018-07-31T08:54:58.739Z,97107.84
2018-07-31T08:59:53.532Z,97104.17
2018-07-31T09:04:48.208Z,97104.37
2018-07-31T09:09:42.945Z,97096.46
2018-07-31T09:14:37.712Z,97099.68
2018-07-31T09:19:32.371Z,97093.91
2018-07-31T09:24:26.841Z,97096.44
2018-07-31T09:29:22.421Z,97095.27
2018-07-31T09:34:17.049Z,97094.39
2018-07-31T09:39:12.692Z,97091.15
2018-07-31T09:44:08.483Z,97092.91
2018-07-31T09:49:03.131Z,97096.56
2018-07-31T09:53:57.751Z,97093.69
2018-07-31T09:58:52.406Z,97088.89
2018-07-31T10:03:47.359Z,97088.19
2018-07-31T10:08:43.571Z,97088.55
2018-07-31T10:13:38.296Z,97086.31
2018-07-31T10:34:38.450Z,97082.09
2018-07-31T10:39:33.928Z,97077.84
2018-07-31T10:44:28.968Z,97076.48
2018-07-31T10:49:24.251Z,97065.24
2018-07-31T10:54:18.919Z,97066.45
2018-07-31T10:59:13.765Z,97070.59
2018-07-31T11:04:08.544Z,97060.79
2018-07-31T11:09:03.299Z,97059.23
2018-07-31T11:13:58.387Z,97058.08
2018-07-31T11:18:53.672Z,97051.69
2018-07-31T11:23:48.303Z,97051.28
2018-07-31T11:28:42.941Z,97039.02
2018-07-31T11:33:37.554Z,97044.76
2018-07-31T11:38:32.331Z,97036.87
2018-07-31T11:43:26.985Z,97036.98
2018-07-31T11:48:21.615Z,97032.59
2018-07-31T11:53:16.237Z,97033.47
2018-07-31T11:58:10.621Z,97029.13
2018-07-31T12:03:05.503Z,97029.72
2018-07-31T12:08:00.064Z,97030.77
2018-07-31T12:12:54.938Z,97022.85
2018-07-31T12:17:49.548Z,97021.39
2018-07-31T12:22:44.152Z,97023.31
2018-07-31T12:27:39.063Z,97011.84
2018-07-31T12:32:36.646Z,97013.45
2018-07-31T12:37:31.254Z,97009.86
2018-07-31T12:42:25.995Z,97006.34
2018-07-31T12:47:20.615Z,97001.16
2018-07-31T12:52:15.668Z,97000.07
2018-07-31T12:57:10.382Z,96997.73
2018-07-31T13:02:05.095Z,97000.30
2018-07-31T13:06:59.896Z,96996.84
2018-07-31T13:11:55.960Z,96995.16
2018-07-31T13:16:50.666Z,96985.36
2018-07-31T13:21:45.291Z,96985.33
2018-07-31T13:26:39.899Z,96984.45
2018-07-31T13:31:34.691Z,96983.84
2018-07-31T13:36:29.543Z,96971.94
2018-07-31T13:41:24.210Z,96970.24
2018-07-31T13:46:18.929Z,96971.91
2018-07-31T13:51:13.527Z,96967.19
2018-07-31T13:56:08.267Z,96962.91
2018-07-31T14:01:02.890Z,96961.57
2018-07-31T14:05:58.124Z,96961.84
2018-07-31T14:10:52.825Z,96960.39
2018-07-31T14:15:47.515Z,96963.45
2018-07-31T14:20:42.316Z,96963.98
2018-07-31T14:25:37.013Z,96958.66
2018-07-31T14:30:31.828Z,96964.86
2018-07-31T14:35:26.570Z,96956.95
2018-07-31T14:40:21.204Z,96957.79
2018-07-31T14:45:15.882Z,96956.09
2018-07-31T14:50:11.943Z,96949.27
2018-07-31T14:55:07.183Z,96961.27
2018-07-31T15:00:01.791Z,96960.20
2018-07-31T15:04:56.987Z,96958.52
2018-07-31T15:09:51.591Z,96951.08
2018-07-31T15:14:46.228Z,96947.86
2018-07-31T15:19:41.115Z,96949.80
2018-07-31T15:24:36.065Z,96948.00
2018-07-31T15:29:30.736Z,96945.73
2018-07-31T15:34:25.556Z,96944.78
2018-07-31T15:39:20.662Z,96948.98
2018-07-31T15:44:15.305Z,96953.11
2018-07-31T15:49:09.959Z,96949.03
2018-07-31T15:54:04.771Z,96948.72
2018-07-31T15:59:00.321Z,96944.41
2018-07-31T16:03:55.675Z,96934.42
2018-07-31T16:08:50.256Z,96936.35
2018-07-31T16:13:44.948Z,96931.28
2018-07-31T16:23:46.992Z,96933.42
2018-07-31T16:28:42.662Z,96932.88
2018-07-31T16:33:37.541Z,96931.98
2018-07-31T16:38:32.456Z,96929.62
2018-07-31T16:43:27.112Z,96934.23
2018-07-31T16:48:21.746Z,96927.40
2018-07-31T16:53:16.423Z,96930.84
2018-07-31T16:58:11.214Z,96925.41
2018-07-31T17:03:05.851Z,96922.61
2018-07-31T17:08:00.534Z,96921.66
2018-07-31T17:12:54.990Z,96924.61
2018-07-31T17:17:49.624Z,96921.80
2018-07-31T17:22:44.615Z,96930.05
2018-07-31T17:27:39.769Z,96925.55
2018-07-31T17:32:34.472Z,96923.64
2018-07-31T17:37:29.633Z,96928.64
2018-07-31T17:42:24.436Z,96932.19
2018-07-31T17:47:19.231Z,96924.00
2018-07-31T17:52:13.895Z,96929.18
2018-07-31T17:57:08.747Z,96935.38
2018-07-31T18:02:03.564Z,96942.32
2018-07-31T18:06:58.226Z,96943.05
2018-07-31T18:11:52.920Z,96948.12
2018-07-31T18:16:47.661Z,96959.61
2018-07-31T18:21:42.566Z,96959.03
2018-07-31T18:26:37.387Z,96955.13
2018-07-31T18:31:31.997Z,96967.34
2018-07-31T18:36:26.631Z,96970.08
2018-07-31T18:41:21.432Z,96977.25
2018-07-31T18:46:16.112Z,96985.96
2018-07-31T18:51:10.753Z,96991.63
2018-07-31T18:56:05.684Z,96991.63
2018-07-31T19:01:00.511Z,96999.41
2018-07-31T19:05:55.137Z,97005.83
2018-07-31T19:10:49.964Z,97020.55
2018-07-31T19:15:44.736Z,97032.94
2018-07-31T19:20:39.270Z,97042.23
2018-07-31T19:25:34.122Z,97054.09
2018-07-31T19:30:29.295Z,97052.12
2018-07-31T19:35:25.419Z,97065.77
2018-07-31T19:40:20.205Z,97069.38
2018-07-31T19:45:14.843Z,97075.09
2018-07-31T19:50:09.584Z,97078.40
2018-07-31T19:55:04.549Z,97095.59
2018-07-31T19:59:59.240Z,97093.91
2018-07-31T20:04:54.004Z,97095.77
2018-07-31T20:09:48.821Z,97100.56
2018-07-31T20:14:43.416Z,97107.77
2018-07-31T20:19:38.179Z,97107.00
2018-07-31T20:24:32.936Z,97113.08
2018-07-31T20:29:28.342Z,97122.22
2018-07-31T20:34:22.995Z,97124.77
2018-07-31T20:39:17.887Z,97130.33
2018-07-31T20:44:12.612Z,97131.81
2018-07-31T20:49:09.206Z,97135.72
2018-07-31T20:54:03.923Z,97134.94
2018-07-31T20:58:59.539Z,97132.57
2018-07-31T21:03:54.352Z,97126.32
2018-07-31T21:08:49.446Z,97124.11
2018-07-31T21:13:44.138Z,97117.86
2018-07-31T21:18:38.887Z,97132.67
2018-07-31T21:23:33.505Z,97124.84
2018-07-31T21:28:28.302Z,97129.05
2018-07-31T21:33:23.198Z,97131.31
2018-07-31T21:38:17.853Z,97125.82
2018-07-31T21:43:12.651Z,97126.61
2018-07-31T21:48:07.396Z,97129.38
2018-07-31T21:53:02.983Z,97134.86
2018-07-31T21:57:58.012Z,97140.66
2018-07-31T22:02:52.793Z,97145.40
2018-07-31T22:07:47.417Z,97150.94
2018-07-31T22:12:42.050Z,97141.13
2018-07-31T22:17:36.781Z,97145.92
2018-07-31T22:22:32.105Z,97145.89
2018-07-31T22:27:27.130Z,97141.70
2018-07-31T22:32:21.804Z,97145.92
2018-07-31T22:37:16.467Z,97141.89
2018-07-31T22:42:11.083Z,97147.77
2018-07-31T22:47:06.140Z,97152.11
2018-07-31T22:52:00.849Z,97154.60
2018-07-31T22:56:55.563Z,97154.19
2018-07-31T23:01:50.240Z,97151.87
2018-07-31T23:06:44.875Z,97152.27
2018-07-31T23:11:39.608Z,97154.77
2018-07-31T23:16:34.605Z,97160.97
2018-07-31T23:21:29.317Z,97169.92
2018-07-31T23:26:23.918Z,97180.14
2018-07-31T23:31:18.621Z,97188.80
2018-07-31T23:36:13.402Z,97178.98
2018-07-31T23:41:08.248Z,97175.13
2018-07-31T23:46:03.027Z,97171.83
2018-07-31T23:50:57.641Z,97175.95
2018-07-31T23:55:52.336Z,97178.84
